sensor_id;sensor_type;location;lat;lon;timestamp;temperature;humidity
78490;DHT22;67776;52.012;4.736;2023-05-07T00:01:30;14.50;89.09
78490;DHT22;67776;52.012;4.736;2023-05-07T00:03:56;14.50;89.69
78490;DHT22;67776;52.012;4.736;2023-05-07T00:06:21;14.48;88.97
78490;DHT22;67776;52.012;4.736;2023-05-07T00:08:47;14.52;88.94
78490;DHT22;67776;52.012;4.736;2023-05-07T00:11:13;14.56;89.59
78490;DHT22;67776;52.012;4.736;2023-05-07T00:13:38;14.55;89.23
78490;DHT22;67776;52.012;4.736;2023-05-07T00:16:04;14.50;89.70
78490;DHT22;67776;52.012;4.736;2023-05-07T00:18:29;14.58;89.55
78490;DHT22;67776;52.012;4.736;2023-05-07T00:20:55;14.59;89.62
78490;DHT22;67776;52.012;4.736;2023-05-07T00:23:21;14.62;89.58
78490;DHT22;67776;52.012;4.736;2023-05-07T00:25:46;14.62;89.17
78490;DHT22;67776;52.012;4.736;2023-05-07T00:28:11;14.60;89.25
78490;DHT22;67776;52.012;4.736;2023-05-07T00:30:37;14.65;89.31
78490;DHT22;67776;52.012;4.736;2023-05-07T00:33:02;14.68;89.32
78490;DHT22;67776;52.012;4.736;2023-05-07T00:35:28;14.63;89.62
78490;DHT22;67776;52.012;4.736;2023-05-07T00:37:54;14.68;89.83
78490;DHT22;67776;52.012;4.736;2023-05-07T00:40:20;14.55;88.33
78490;DHT22;67776;52.012;4.736;2023-05-07T00:42:45;14.43;88.11
78490;DHT22;67776;52.012;4.736;2023-05-07T00:45:15;14.46;88.83
78490;DHT22;67776;52.012;4.736;2023-05-07T00:47:41;14.43;89.49
78490;DHT22;67776;52.012;4.736;2023-05-07T00:50:08;14.48;89.19
78490;DHT22;67776;52.012;4.736;2023-05-07T00:52:35;14.48;89.08
78490;DHT22;67776;52.012;4.736;2023-05-07T00:55:05;14.55;89.09
78490;DHT22;67776;52.012;4.736;2023-05-07T00:57:34;14.45;89.01
78490;DHT22;67776;52.012;4.736;2023-05-07T01:00:03;14.39;89.38
78490;DHT22;67776;52.012;4.736;2023-05-07T01:02:29;14.36;89.21
78490;DHT22;67776;52.012;4.736;2023-05-07T01:04:55;14.33;89.31
78490;DHT22;67776;52.012;4.736;2023-05-07T01:07:20;14.39;89.64
78490;DHT22;67776;52.012;4.736;2023-05-07T01:09:46;14.43;89.69
78490;DHT22;67776;52.012;4.736;2023-05-07T01:12:12;14.46;89.92
78490;DHT22;67776;52.012;4.736;2023-05-07T01:14:38;14.45;89.55
78490;DHT22;67776;52.012;4.736;2023-05-07T01:17:03;14.41;89.89
78490;DHT22;67776;52.012;4.736;2023-05-07T01:19:29;14.43;90.16
78490;DHT22;67776;52.012;4.736;2023-05-07T01:22:02;14.43;89.78
78490;DHT22;67776;52.012;4.736;2023-05-07T01:24:29;14.43;89.84
78490;DHT22;67776;52.012;4.736;2023-05-07T01:26:55;14.43;89.88
78490;DHT22;67776;52.012;4.736;2023-05-07T01:29:20;14.45;89.84
78490;DHT22;67776;52.012;4.736;2023-05-07T01:31:46;14.48;90.09
78490;DHT22;67776;52.012;4.736;2023-05-07T01:34:12;14.50;90.24
78490;DHT22;67776;52.012;4.736;2023-05-07T01:36:42;14.48;90.60
78490;DHT22;67776;52.012;4.736;2023-05-07T01:39:08;14.49;90.11
78490;DHT22;67776;52.012;4.736;2023-05-07T01:41:34;14.45;89.88
78490;DHT22;67776;52.012;4.736;2023-05-07T01:44:00;14.49;90.10
78490;DHT22;67776;52.012;4.736;2023-05-07T01:46:26;14.48;90.58
78490;DHT22;67776;52.012;4.736;2023-05-07T01:48:51;14.45;90.94
78490;DHT22;67776;52.012;4.736;2023-05-07T01:51:17;14.43;90.77
78490;DHT22;67776;52.012;4.736;2023-05-07T01:53:42;14.33;90.14
78490;DHT22;67776;52.012;4.736;2023-05-07T01:56:09;14.33;90.19
78490;DHT22;67776;52.012;4.736;2023-05-07T01:58:34;14.35;90.16
78490;DHT22;67776;52.012;4.736;2023-05-07T02:01:00;14.38;90.39
78490;DHT22;67776;52.012;4.736;2023-05-07T02:03:25;14.43;90.22
78490;DHT22;67776;52.012;4.736;2023-05-07T02:05:50;14.38;89.81
78490;DHT22;67776;52.012;4.736;2023-05-07T02:08:16;14.33;90.25
78490;DHT22;67776;52.012;4.736;2023-05-07T02:10:41;14.35;90.50
78490;DHT22;67776;52.012;4.736;2023-05-07T02:13:06;14.35;90.08
78490;DHT22;67776;52.012;4.736;2023-05-07T02:15:32;14.29;90.55
78490;DHT22;67776;52.012;4.736;2023-05-07T02:18:04;14.38;90.62
78490;DHT22;67776;52.012;4.736;2023-05-07T02:20:31;14.35;90.82
78490;DHT22;67776;52.012;4.736;2023-05-07T02:22:56;14.36;90.31
78490;DHT22;67776;52.012;4.736;2023-05-07T02:25:22;14.38;90.54
78490;DHT22;67776;52.012;4.736;2023-05-07T02:27:47;14.35;90.39
78490;DHT22;67776;52.012;4.736;2023-05-07T02:30:14;14.32;89.94
78490;DHT22;67776;52.012;4.736;2023-05-07T02:32:39;14.29;90.27
78490;DHT22;67776;52.012;4.736;2023-05-07T02:35:05;14.28;90.63
78490;DHT22;67776;52.012;4.736;2023-05-07T02:37:30;14.31;90.17
78490;DHT22;67776;52.012;4.736;2023-05-07T02:39:56;14.26;90.02
78490;DHT22;67776;52.012;4.736;2023-05-07T02:42:21;14.36;90.06
78490;DHT22;67776;52.012;4.736;2023-05-07T02:44:46;14.41;90.35
78490;DHT22;67776;52.012;4.736;2023-05-07T02:47:13;14.32;90.00
78490;DHT22;67776;52.012;4.736;2023-05-07T02:49:39;14.29;90.57
78490;DHT22;67776;52.012;4.736;2023-05-07T02:52:04;14.36;90.42
78490;DHT22;67776;52.012;4.736;2023-05-07T02:54:30;14.42;90.47
78490;DHT22;67776;52.012;4.736;2023-05-07T02:56:55;14.32;90.15
78490;DHT22;67776;52.012;4.736;2023-05-07T02:59:21;14.38;90.08
78490;DHT22;67776;52.012;4.736;2023-05-07T03:01:46;14.38;90.25
78490;DHT22;67776;52.012;4.736;2023-05-07T03:04:13;14.36;90.01
78490;DHT22;67776;52.012;4.736;2023-05-07T03:06:39;14.33;89.74
78490;DHT22;67776;52.012;4.736;2023-05-07T03:09:04;14.35;89.95
78490;DHT22;67776;52.012;4.736;2023-05-07T03:11:30;14.39;90.39
78490;DHT22;67776;52.012;4.736;2023-05-07T03:13:55;14.36;90.32
78490;DHT22;67776;52.012;4.736;2023-05-07T03:16:20;14.38;90.66
78490;DHT22;67776;52.012;4.736;2023-05-07T03:18:46;14.38;90.87
78490;DHT22;67776;52.012;4.736;2023-05-07T03:21:11;14.43;90.66
78490;DHT22;67776;52.012;4.736;2023-05-07T03:23:37;14.32;90.71
78490;DHT22;67776;52.012;4.736;2023-05-07T03:26:02;14.29;90.47
78490;DHT22;67776;52.012;4.736;2023-05-07T03:28:27;14.32;90.24
78490;DHT22;67776;52.012;4.736;2023-05-07T03:30:53;14.35;90.48
78490;DHT22;67776;52.012;4.736;2023-05-07T03:33:18;14.38;91.01
78490;DHT22;67776;52.012;4.736;2023-05-07T03:35:43;14.32;90.93
78490;DHT22;67776;52.012;4.736;2023-05-07T03:38:09;14.35;91.08
78490;DHT22;67776;52.012;4.736;2023-05-07T03:40:34;14.29;90.66
78490;DHT22;67776;52.012;4.736;2023-05-07T03:43:00;14.26;90.75
78490;DHT22;67776;52.012;4.736;2023-05-07T03:45:25;14.26;91.06
78490;DHT22;67776;52.012;4.736;2023-05-07T03:47:54;14.29;90.64
78490;DHT22;67776;52.012;4.736;2023-05-07T03:50:19;14.35;90.85
78490;DHT22;67776;52.012;4.736;2023-05-07T03:52:45;14.32;90.46
78490;DHT22;67776;52.012;4.736;2023-05-07T03:55:10;14.29;90.59
78490;DHT22;67776;52.012;4.736;2023-05-07T03:57:36;14.28;90.28
78490;DHT22;67776;52.012;4.736;2023-05-07T04:00:01;14.31;90.76
78490;DHT22;67776;52.012;4.736;2023-05-07T04:02:28;14.35;90.73
78490;DHT22;67776;52.012;4.736;2023-05-07T04:04:54;14.35;90.65
78490;DHT22;67776;52.012;4.736;2023-05-07T04:07:19;14.33;90.79
78490;DHT22;67776;52.012;4.736;2023-05-07T04:09:44;14.33;91.13
78490;DHT22;67776;52.012;4.736;2023-05-07T04:12:10;14.26;91.14
78490;DHT22;67776;52.012;4.736;2023-05-07T04:14:35;14.35;90.99
78490;DHT22;67776;52.012;4.736;2023-05-07T04:17:00;14.36;91.01
78490;DHT22;67776;52.012;4.736;2023-05-07T04:19:26;14.41;90.96
78490;DHT22;67776;52.012;4.736;2023-05-07T04:21:52;14.41;90.23
78490;DHT22;67776;52.012;4.736;2023-05-07T04:24:17;14.41;90.36
78490;DHT22;67776;52.012;4.736;2023-05-07T04:26:43;14.32;89.88
78490;DHT22;67776;52.012;4.736;2023-05-07T04:29:08;14.31;90.15
78490;DHT22;67776;52.012;4.736;2023-05-07T04:31:33;14.31;90.68
78490;DHT22;67776;52.012;4.736;2023-05-07T04:33:59;14.24;91.12
78490;DHT22;67776;52.012;4.736;2023-05-07T04:36:24;14.24;90.39
78490;DHT22;67776;52.012;4.736;2023-05-07T04:38:53;14.25;90.21
78490;DHT22;67776;52.012;4.736;2023-05-07T04:41:18;14.31;90.66
78490;DHT22;67776;52.012;4.736;2023-05-07T04:43:44;14.41;90.39
78490;DHT22;67776;52.012;4.736;2023-05-07T04:46:09;14.39;90.16
78490;DHT22;67776;52.012;4.736;2023-05-07T04:48:35;14.41;90.23
78490;DHT22;67776;52.012;4.736;2023-05-07T04:51:00;14.42;89.90
78490;DHT22;67776;52.012;4.736;2023-05-07T04:53:25;14.35;90.66
78490;DHT22;67776;52.012;4.736;2023-05-07T04:55:56;14.32;90.02
78490;DHT22;67776;52.012;4.736;2023-05-07T04:58:22;14.36;90.62
78490;DHT22;67776;52.012;4.736;2023-05-07T05:00:47;14.28;89.81
78490;DHT22;67776;52.012;4.736;2023-05-07T05:03:13;14.29;90.52
78490;DHT22;67776;52.012;4.736;2023-05-07T05:05:38;14.29;90.11
78490;DHT22;67776;52.012;4.736;2023-05-07T05:08:03;14.39;89.68
78490;DHT22;67776;52.012;4.736;2023-05-07T05:10:29;14.43;90.01
78490;DHT22;67776;52.012;4.736;2023-05-07T05:12:54;14.42;90.32
78490;DHT22;67776;52.012;4.736;2023-05-07T05:15:19;14.52;90.54
78490;DHT22;67776;52.012;4.736;2023-05-07T05:17:45;14.45;90.01
78490;DHT22;67776;52.012;4.736;2023-05-07T05:20:10;14.43;90.94
78490;DHT22;67776;52.012;4.736;2023-05-07T05:22:36;14.45;90.08
78490;DHT22;67776;52.012;4.736;2023-05-07T05:25:02;14.45;89.52
78490;DHT22;67776;52.012;4.736;2023-05-07T05:27:28;14.56;89.85
78490;DHT22;67776;52.012;4.736;2023-05-07T05:29:53;14.58;89.59
78490;DHT22;67776;52.012;4.736;2023-05-07T05:32:19;14.56;89.69
78490;DHT22;67776;52.012;4.736;2023-05-07T05:34:45;14.58;89.02
78490;DHT22;67776;52.012;4.736;2023-05-07T05:37:10;14.59;89.23
78490;DHT22;67776;52.012;4.736;2023-05-07T05:39:36;14.68;90.05
78490;DHT22;67776;52.012;4.736;2023-05-07T05:42:01;14.70;89.26
78490;DHT22;67776;52.012;4.736;2023-05-07T05:44:27;14.73;89.42
78490;DHT22;67776;52.012;4.736;2023-05-07T05:46:52;14.80;89.36
78490;DHT22;67776;52.012;4.736;2023-05-07T05:49:20;14.77;90.15
78490;DHT22;67776;52.012;4.736;2023-05-07T05:51:45;14.79;89.76
78490;DHT22;67776;52.012;4.736;2023-05-07T05:54:11;14.76;89.12
78490;DHT22;67776;52.012;4.736;2023-05-07T05:56:36;14.77;89.47
78490;DHT22;67776;52.012;4.736;2023-05-07T05:59:02;14.77;89.68
78490;DHT22;67776;52.012;4.736;2023-05-07T06:01:27;14.75;89.77
78490;DHT22;67776;52.012;4.736;2023-05-07T06:03:53;14.69;89.31
78490;DHT22;67776;52.012;4.736;2023-05-07T06:06:18;14.75;89.37
78490;DHT22;67776;52.012;4.736;2023-05-07T06:08:43;14.76;89.52
78490;DHT22;67776;52.012;4.736;2023-05-07T06:11:09;14.76;90.32
78490;DHT22;67776;52.012;4.736;2023-05-07T06:13:34;14.84;89.87
78490;DHT22;67776;52.012;4.736;2023-05-07T06:16:00;14.97;90.39
78490;DHT22;67776;52.012;4.736;2023-05-07T06:18:25;14.90;89.30
78490;DHT22;67776;52.012;4.736;2023-05-07T06:20:51;14.93;89.91
78490;DHT22;67776;52.012;4.736;2023-05-07T06:23:17;14.87;89.70
78490;DHT22;67776;52.012;4.736;2023-05-07T06:25:48;14.90;89.47
78490;DHT22;67776;52.012;4.736;2023-05-07T06:28:13;14.91;89.62
78490;DHT22;67776;52.012;4.736;2023-05-07T06:30:38;14.93;89.03
78490;DHT22;67776;52.012;4.736;2023-05-07T06:33:05;14.94;89.24
78490;DHT22;67776;52.012;4.736;2023-05-07T06:35:30;15.03;88.82
78490;DHT22;67776;52.012;4.736;2023-05-07T06:37:55;15.05;88.66
78490;DHT22;67776;52.012;4.736;2023-05-07T06:40:21;15.05;89.24
78490;DHT22;67776;52.012;4.736;2023-05-07T06:42:46;15.04;88.99
78490;DHT22;67776;52.012;4.736;2023-05-07T06:45:11;15.03;89.09
78490;DHT22;67776;52.012;4.736;2023-05-07T06:47:37;15.05;88.50
78490;DHT22;67776;52.012;4.736;2023-05-07T06:50:02;15.00;87.65
78490;DHT22;67776;52.012;4.736;2023-05-07T06:52:28;15.03;88.29
78490;DHT22;67776;52.012;4.736;2023-05-07T06:54:53;15.07;89.68
78490;DHT22;67776;52.012;4.736;2023-05-07T06:57:18;15.08;90.11
78490;DHT22;67776;52.012;4.736;2023-05-07T06:59:43;15.03;89.96
78490;DHT22;67776;52.012;4.736;2023-05-07T07:02:09;15.03;89.89
78490;DHT22;67776;52.012;4.736;2023-05-07T07:04:34;14.93;90.37
78490;DHT22;67776;52.012;4.736;2023-05-07T07:06:59;14.87;90.64
78490;DHT22;67776;52.012;4.736;2023-05-07T07:09:25;14.81;89.98
78490;DHT22;67776;52.012;4.736;2023-05-07T07:11:50;14.88;90.50
78490;DHT22;67776;52.012;4.736;2023-05-07T07:14:15;14.97;91.28
78490;DHT22;67776;52.012;4.736;2023-05-07T07:16:41;15.05;91.36
78490;DHT22;67776;52.012;4.736;2023-05-07T07:19:06;15.03;91.13
78490;DHT22;67776;52.012;4.736;2023-05-07T07:21:32;15.07;90.89
78490;DHT22;67776;52.012;4.736;2023-05-07T07:23:57;15.11;91.19
78490;DHT22;67776;52.012;4.736;2023-05-07T07:26:22;15.12;90.89
78490;DHT22;67776;52.012;4.736;2023-05-07T07:28:48;15.07;90.43
78490;DHT22;67776;52.012;4.736;2023-05-07T07:31:14;15.12;90.89
78490;DHT22;67776;52.012;4.736;2023-05-07T07:33:39;15.20;90.63
78490;DHT22;67776;52.012;4.736;2023-05-07T07:36:05;15.31;90.69
78490;DHT22;67776;52.012;4.736;2023-05-07T07:38:31;15.31;90.37
78490;DHT22;67776;52.012;4.736;2023-05-07T07:40:59;15.39;90.30
78490;DHT22;67776;52.012;4.736;2023-05-07T07:43:25;15.52;90.26
78490;DHT22;67776;52.012;4.736;2023-05-07T07:45:50;15.65;90.34
78490;DHT22;67776;52.012;4.736;2023-05-07T07:48:16;15.76;89.94
78490;DHT22;67776;52.012;4.736;2023-05-07T07:50:41;15.71;89.33
78490;DHT22;67776;52.012;4.736;2023-05-07T07:53:06;15.74;89.35
78490;DHT22;67776;52.012;4.736;2023-05-07T07:55:32;15.80;89.50
78490;DHT22;67776;52.012;4.736;2023-05-07T07:57:57;15.79;88.62
78490;DHT22;67776;52.012;4.736;2023-05-07T08:00:23;15.73;88.47
78490;DHT22;67776;52.012;4.736;2023-05-07T08:02:48;15.89;89.17
78490;DHT22;67776;52.012;4.736;2023-05-07T08:05:13;16.14;88.69
78490;DHT22;67776;52.012;4.736;2023-05-07T08:07:40;16.28;88.19
78490;DHT22;67776;52.012;4.736;2023-05-07T08:10:06;16.35;87.27
78490;DHT22;67776;52.012;4.736;2023-05-07T08:12:31;16.59;86.97
78490;DHT22;67776;52.012;4.736;2023-05-07T08:14:57;16.75;87.01
78490;DHT22;67776;52.012;4.736;2023-05-07T08:17:22;16.97;87.01
78490;DHT22;67776;52.012;4.736;2023-05-07T08:19:48;16.99;84.86
78490;DHT22;67776;52.012;4.736;2023-05-07T08:22:13;17.20;85.89
78490;DHT22;67776;52.012;4.736;2023-05-07T08:24:39;17.46;85.14
78490;DHT22;67776;52.012;4.736;2023-05-07T08:27:05;17.46;83.98
78490;DHT22;67776;52.012;4.736;2023-05-07T08:29:30;17.65;83.54
78490;DHT22;67776;52.012;4.736;2023-05-07T08:31:56;17.80;83.49
78490;DHT22;67776;52.012;4.736;2023-05-07T08:34:22;17.55;84.40
78490;DHT22;67776;52.012;4.736;2023-05-07T08:36:47;17.66;84.25
78490;DHT22;67776;52.012;4.736;2023-05-07T08:39:15;17.53;81.50
78490;DHT22;67776;52.012;4.736;2023-05-07T08:41:44;17.90;82.80
78490;DHT22;67776;52.012;4.736;2023-05-07T08:44:12;17.89;81.92
78490;DHT22;67776;52.012;4.736;2023-05-07T08:46:37;17.93;82.76
78490;DHT22;67776;52.012;4.736;2023-05-07T08:49:03;18.06;81.52
78490;DHT22;67776;52.012;4.736;2023-05-07T08:51:28;18.04;80.10
78490;DHT22;67776;52.012;4.736;2023-05-07T08:53:53;18.11;81.03
78490;DHT22;67776;52.012;4.736;2023-05-07T08:56:19;18.25;80.86
78490;DHT22;67776;52.012;4.736;2023-05-07T08:58:45;18.38;79.80
78490;DHT22;67776;52.012;4.736;2023-05-07T09:01:15;18.42;79.93
78490;DHT22;67776;52.012;4.736;2023-05-07T09:03:42;18.42;78.98
78490;DHT22;67776;52.012;4.736;2023-05-07T09:06:08;18.30;78.22
78490;DHT22;67776;52.012;4.736;2023-05-07T09:08:35;18.53;79.25
78490;DHT22;67776;52.012;4.736;2023-05-07T09:11:00;18.61;78.85
78490;DHT22;67776;52.012;4.736;2023-05-07T09:13:27;18.86;75.63
78490;DHT22;67776;52.012;4.736;2023-05-07T09:15:53;19.07;78.28
78490;DHT22;67776;52.012;4.736;2023-05-07T09:18:18;19.16;76.35
78490;DHT22;67776;52.012;4.736;2023-05-07T09:20:43;19.06;73.53
78490;DHT22;67776;52.012;4.736;2023-05-07T09:23:09;19.11;75.51
78490;DHT22;67776;52.012;4.736;2023-05-07T09:25:35;19.02;75.30
78490;DHT22;67776;52.012;4.736;2023-05-07T09:28:02;19.11;74.92
78490;DHT22;67776;52.012;4.736;2023-05-07T09:30:28;19.02;74.87
78490;DHT22;67776;52.012;4.736;2023-05-07T09:32:55;18.77;73.48
78490;DHT22;67776;52.012;4.736;2023-05-07T09:35:20;18.90;74.78
78490;DHT22;67776;52.012;4.736;2023-05-07T09:37:56;19.04;72.61
78490;DHT22;67776;52.012;4.736;2023-05-07T09:40:23;18.89;72.54
78490;DHT22;67776;52.012;4.736;2023-05-07T09:42:49;19.17;72.25
78490;DHT22;67776;52.012;4.736;2023-05-07T09:45:16;19.42;72.96
78490;DHT22;67776;52.012;4.736;2023-05-07T09:47:42;19.44;72.93
78490;DHT22;67776;52.012;4.736;2023-05-07T09:50:10;19.44;71.41
78490;DHT22;67776;52.012;4.736;2023-05-07T09:52:38;19.69;73.64
78490;DHT22;67776;52.012;4.736;2023-05-07T09:55:06;19.78;71.87
78490;DHT22;67776;52.012;4.736;2023-05-07T09:57:32;20.06;72.10
78490;DHT22;67776;52.012;4.736;2023-05-07T09:59:59;20.30;71.90
78490;DHT22;67776;52.012;4.736;2023-05-07T10:02:30;20.12;71.19
78490;DHT22;67776;52.012;4.736;2023-05-07T10:04:57;20.49;69.84
78490;DHT22;67776;52.012;4.736;2023-05-07T10:07:25;20.33;70.14
78490;DHT22;67776;52.012;4.736;2023-05-07T10:09:51;20.56;69.04
78490;DHT22;67776;52.012;4.736;2023-05-07T10:12:18;20.40;66.47
78490;DHT22;67776;52.012;4.736;2023-05-07T10:14:45;20.80;69.99
78490;DHT22;67776;52.012;4.736;2023-05-07T10:17:12;20.61;67.26
78490;DHT22;67776;52.012;4.736;2023-05-07T10:19:38;20.55;68.73
78490;DHT22;67776;52.012;4.736;2023-05-07T10:22:05;20.21;67.32
78490;DHT22;67776;52.012;4.736;2023-05-07T10:24:36;19.96;68.06
78490;DHT22;67776;52.012;4.736;2023-05-07T10:27:04;20.44;69.05
78490;DHT22;67776;52.012;4.736;2023-05-07T10:32:35;20.96;67.06
78490;DHT22;67776;52.012;4.736;2023-05-07T10:35:04;21.47;69.40
78490;DHT22;67776;52.012;4.736;2023-05-07T10:37:30;21.55;69.33
78490;DHT22;67776;52.012;4.736;2023-05-07T10:39:56;21.50;66.98
78490;DHT22;67776;52.012;4.736;2023-05-07T10:42:23;21.83;64.97
78490;DHT22;67776;52.012;4.736;2023-05-07T10:44:48;21.50;66.96
78490;DHT22;67776;52.012;4.736;2023-05-07T10:47:15;21.72;66.78
78490;DHT22;67776;52.012;4.736;2023-05-07T10:52:18;21.85;64.62
78490;DHT22;67776;52.012;4.736;2023-05-07T10:54:44;22.26;65.40
78490;DHT22;67776;52.012;4.736;2023-05-07T10:59:57;22.88;64.78
78490;DHT22;67776;52.012;4.736;2023-05-07T11:02:23;22.58;66.29
78490;DHT22;67776;52.012;4.736;2023-05-07T11:05:24;22.37;65.10
78490;DHT22;67776;52.012;4.736;2023-05-07T11:08:00;21.95;64.24
78490;DHT22;67776;52.012;4.736;2023-05-07T11:10:55;22.32;61.17
78490;DHT22;67776;52.012;4.736;2023-05-07T11:16:22;22.62;62.32
78490;DHT22;67776;52.012;4.736;2023-05-07T11:18:50;22.37;62.38
78490;DHT22;67776;52.012;4.736;2023-05-07T11:21:38;21.89;62.95
78490;DHT22;67776;52.012;4.736;2023-05-07T11:24:08;22.14;63.13
78490;DHT22;67776;52.012;4.736;2023-05-07T11:26:48;22.34;61.97
78490;DHT22;67776;52.012;4.736;2023-05-07T11:29:19;21.95;62.89
78490;DHT22;67776;52.012;4.736;2023-05-07T11:31:49;22.64;62.30
78490;DHT22;67776;52.012;4.736;2023-05-07T11:34:15;23.30;62.08
78490;DHT22;67776;52.012;4.736;2023-05-07T11:36:46;23.07;61.73
78490;DHT22;67776;52.012;4.736;2023-05-07T11:39:32;22.23;62.22
78490;DHT22;67776;52.012;4.736;2023-05-07T11:41:59;21.66;62.77
78490;DHT22;67776;52.012;4.736;2023-05-07T11:44:25;21.71;62.66
78490;DHT22;67776;52.012;4.736;2023-05-07T11:46:51;21.27;65.40
78490;DHT22;67776;52.012;4.736;2023-05-07T11:49:19;21.38;64.33
78490;DHT22;67776;52.012;4.736;2023-05-07T11:51:45;21.57;64.65
78490;DHT22;67776;52.012;4.736;2023-05-07T11:54:15;21.48;64.57
78490;DHT22;67776;52.012;4.736;2023-05-07T11:56:43;21.63;63.45
78490;DHT22;67776;52.012;4.736;2023-05-07T11:59:17;21.78;63.72
78490;DHT22;67776;52.012;4.736;2023-05-07T12:01:48;22.13;63.01
78490;DHT22;67776;52.012;4.736;2023-05-07T12:04:13;22.52;61.26
78490;DHT22;67776;52.012;4.736;2023-05-07T12:06:39;23.13;60.20
78490;DHT22;67776;52.012;4.736;2023-05-07T12:09:04;23.53;59.66
78490;DHT22;67776;52.012;4.736;2023-05-07T12:11:34;23.98;61.15
78490;DHT22;67776;52.012;4.736;2023-05-07T12:14:05;23.68;59.10
78490;DHT22;67776;52.012;4.736;2023-05-07T12:16:31;22.99;60.01
78490;DHT22;67776;52.012;4.736;2023-05-07T12:18:58;23.27;61.42
78490;DHT22;67776;52.012;4.736;2023-05-07T12:21:24;22.99;60.06
78490;DHT22;67776;52.012;4.736;2023-05-07T12:23:50;22.24;62.95
78490;DHT22;67776;52.012;4.736;2023-05-07T12:26:15;22.16;64.50
78490;DHT22;67776;52.012;4.736;2023-05-07T12:28:41;22.48;64.46
78490;DHT22;67776;52.012;4.736;2023-05-07T12:31:07;21.98;63.39
78490;DHT22;67776;52.012;4.736;2023-05-07T12:33:34;22.36;63.58
78490;DHT22;67776;52.012;4.736;2023-05-07T12:36:03;23.26;62.62
78490;DHT22;67776;52.012;4.736;2023-05-07T12:38:35;22.88;59.86
78490;DHT22;67776;52.012;4.736;2023-05-07T12:41:02;22.52;61.36
78490;DHT22;67776;52.012;4.736;2023-05-07T12:43:28;22.51;61.09
78490;DHT22;67776;52.012;4.736;2023-05-07T12:45:55;22.67;63.30
78490;DHT22;67776;52.012;4.736;2023-05-07T12:48:22;21.95;62.45
78490;DHT22;67776;52.012;4.736;2023-05-07T12:50:51;22.06;61.97
78490;DHT22;67776;52.012;4.736;2023-05-07T12:53:16;21.88;62.32
78490;DHT22;67776;52.012;4.736;2023-05-07T12:55:46;21.63;62.72
78490;DHT22;67776;52.012;4.736;2023-05-07T12:58:30;21.50;63.69
78490;DHT22;67776;52.012;4.736;2023-05-07T13:00:57;21.45;64.76
78490;DHT22;67776;52.012;4.736;2023-05-07T13:03:30;21.43;64.65
78490;DHT22;67776;52.012;4.736;2023-05-07T13:06:01;21.51;64.28
78490;DHT22;67776;52.012;4.736;2023-05-07T13:08:35;21.26;67.39
78490;DHT22;67776;52.012;4.736;2023-05-07T13:11:03;21.14;66.01
78490;DHT22;67776;52.012;4.736;2023-05-07T13:13:33;20.80;66.37
78490;DHT22;67776;52.012;4.736;2023-05-07T13:16:00;20.75;66.33
78490;DHT22;67776;52.012;4.736;2023-05-07T13:18:26;20.73;66.98
78490;DHT22;67776;52.012;4.736;2023-05-07T13:20:53;20.85;67.28
78490;DHT22;67776;52.012;4.736;2023-05-07T13:23:19;20.95;66.29
78490;DHT22;67776;52.012;4.736;2023-05-07T13:25:44;20.89;68.50
78490;DHT22;67776;52.012;4.736;2023-05-07T13:28:09;20.78;69.37
78490;DHT22;67776;52.012;4.736;2023-05-07T13:30:35;20.86;67.65
78490;DHT22;67776;52.012;4.736;2023-05-07T13:33:00;20.12;69.90
78490;DHT22;67776;52.012;4.736;2023-05-07T13:35:26;19.79;71.45
78490;DHT22;67776;52.012;4.736;2023-05-07T13:37:51;19.97;71.77
78490;DHT22;67776;52.012;4.736;2023-05-07T13:40:17;19.94;70.65
78490;DHT22;67776;52.012;4.736;2023-05-07T13:42:43;19.66;71.38
78490;DHT22;67776;52.012;4.736;2023-05-07T13:45:09;19.61;71.27
78490;DHT22;67776;52.012;4.736;2023-05-07T13:47:34;19.48;72.44
78490;DHT22;67776;52.012;4.736;2023-05-07T13:50:00;19.35;74.84
78490;DHT22;67776;52.012;4.736;2023-05-07T13:52:25;19.20;74.68
78490;DHT22;67776;52.012;4.736;2023-05-07T13:54:51;19.25;74.14
78490;DHT22;67776;52.012;4.736;2023-05-07T13:57:17;18.65;76.69
78490;DHT22;67776;52.012;4.736;2023-05-07T13:59:43;18.44;77.43
78490;DHT22;67776;52.012;4.736;2023-05-07T14:02:08;18.40;77.35
78490;DHT22;67776;52.012;4.736;2023-05-07T14:04:34;18.70;77.50
78490;DHT22;67776;52.012;4.736;2023-05-07T14:06:59;18.73;77.31
78490;DHT22;67776;52.012;4.736;2023-05-07T14:09:25;18.86;78.06
78490;DHT22;67776;52.012;4.736;2023-05-07T14:11:50;18.95;78.19
78490;DHT22;67776;52.012;4.736;2023-05-07T14:14:19;18.97;78.66
78490;DHT22;67776;52.012;4.736;2023-05-07T14:16:45;19.03;79.08
78490;DHT22;67776;52.012;4.736;2023-05-07T14:19:11;19.07;78.81
78490;DHT22;67776;52.012;4.736;2023-05-07T14:21:38;19.02;79.78
78490;DHT22;67776;52.012;4.736;2023-05-07T14:24:07;18.63;79.87
78490;DHT22;67776;52.012;4.736;2023-05-07T14:26:33;18.76;78.89
78490;DHT22;67776;52.012;4.736;2023-05-07T14:28:59;18.76;79.99
78490;DHT22;67776;52.012;4.736;2023-05-07T14:31:24;18.83;80.65
78490;DHT22;67776;52.012;4.736;2023-05-07T14:33:50;18.56;81.60
78490;DHT22;67776;52.012;4.736;2023-05-07T14:36:16;18.69;80.93
78490;DHT22;67776;52.012;4.736;2023-05-07T14:38:42;18.66;81.90
78490;DHT22;67776;52.012;4.736;2023-05-07T14:41:07;18.77;80.31
78490;DHT22;67776;52.012;4.736;2023-05-07T14:43:33;18.80;80.23
78490;DHT22;67776;52.012;4.736;2023-05-07T14:45:58;18.83;81.54
78490;DHT22;67776;52.012;4.736;2023-05-07T14:48:23;18.86;81.07
78490;DHT22;67776;52.012;4.736;2023-05-07T14:50:49;18.90;80.72
78490;DHT22;67776;52.012;4.736;2023-05-07T14:53:15;18.80;79.51
78490;DHT22;67776;52.012;4.736;2023-05-07T14:55:40;19.00;79.73
78490;DHT22;67776;52.012;4.736;2023-05-07T14:58:07;19.16;80.20
78490;DHT22;67776;52.012;4.736;2023-05-07T15:00:33;18.97;80.56
78490;DHT22;67776;52.012;4.736;2023-05-07T15:03:05;18.90;80.28
78490;DHT22;67776;52.012;4.736;2023-05-07T15:05:31;19.02;78.89
78490;DHT22;67776;52.012;4.736;2023-05-07T15:07:56;18.99;79.17
78490;DHT22;67776;52.012;4.736;2023-05-07T15:10:21;19.14;79.47
78490;DHT22;67776;52.012;4.736;2023-05-07T15:12:54;19.18;77.12
78490;DHT22;67776;52.012;4.736;2023-05-07T15:15:19;19.25;76.34
78490;DHT22;67776;52.012;4.736;2023-05-07T15:17:45;19.13;77.69
78490;DHT22;67776;52.012;4.736;2023-05-07T15:20:12;19.16;77.79
78490;DHT22;67776;52.012;4.736;2023-05-07T15:22:38;19.20;77.50
78490;DHT22;67776;52.012;4.736;2023-05-07T15:25:04;19.28;78.81
78490;DHT22;67776;52.012;4.736;2023-05-07T15:27:30;19.07;78.25
78490;DHT22;67776;52.012;4.736;2023-05-07T15:30:02;19.11;79.09
78490;DHT22;67776;52.012;4.736;2023-05-07T15:32:37;18.95;80.18
78490;DHT22;67776;52.012;4.736;2023-05-07T15:35:04;19.08;78.91
78490;DHT22;67776;52.012;4.736;2023-05-07T15:37:33;18.97;79.62